Impacts METAR Board
IDs:

KBTR - Baton Rouge/Ryan Fld, LA, US

Updated at: 1400 UTC 16 Aug 2022
Potential Impact None Slight Moderate High
Time 16/02Z 16/03Z 16/04Z 16/05Z 16/06Z 16/07Z 16/08Z 16/09Z 16/10Z 16/11Z 16/12Z 16/13Z 16/14Z
Temp83 82 80 80 80 79 78 78 77 77 77 80 83
Dewpt76 76 76 76 76 76 76 75 75 75 75 76 77
Altim29.91 29.92 29.93 29.92 29.93 29.93 29.93 29.94 29.94 29.94 29.94 29.95 29.97
VIS10 10 10 10 10 10 10 10 10 10 10 10 10
CIG-- -- -- -- -- -- -- -- -- -- -- -- --
CoverCLRCLRCLRCLRCLRCLRCLRCLRCLRCLRCLRCLRCLR
FltCatVFRVFRVFRVFRVFRVFRVFRVFRVFRVFRVFRVFRVFR
WX--------------------------
WDir330002702803002600260300320320
WSpd3 0 0 6 5 4 4 0 4 3 3 7
WGst-- -- -- -- -- -- -- -- -- -- -- -- --
Raw hourly METARs
KBTR 160153Z 33003KT 10SM CLR 28/24 A2991 RMK AO2 SLP126 T02830244
KBTR 160253Z 00000KT 10SM CLR 28/24 A2992 RMK AO2 SLP130 T02780244 53009
KBTR 160353Z 00000KT 10SM CLR 27/24 A2993 RMK AO2 SLP132 T02670244
KBTR 160453Z 10SM CLR 27/24 A2992 RMK AO2 SLP131 T02670244
KBTR 160553Z AUTO 27006KT 10SM CLR 27/24 A2993 RMK AO2 SLP132 T02670244 10328 20261 403440244 51002
KBTR 160653Z AUTO 28005KT 10SM CLR 26/24 A2993 RMK AO2 SLP133 T02610244
KBTR 160753Z AUTO 30004KT 10SM CLR 26/24 A2993 RMK AO2 SLP133 T02560244
KBTR 160853Z AUTO 26004KT 10SM CLR 26/24 A2994 RMK AO2 SLP135 T02560239 53003
KBTR 160953Z AUTO 00000KT 10SM CLR 25/24 A2994 RMK AO2 SLP135 T02500239
KBTR 161053Z 26004KT 10SM CLR 25/24 A2994 RMK AO2 SLP137 T02500239
KBTR 161153Z 30003KT 10SM CLR 25/24 A2994 RMK AO2 SLP138 T02500239 10272 20250 53003
KBTR 161253Z 32003KT 10SM CLR 27/24 A2995 RMK AO2 SLP141 T02670244
KBTR 161353Z 32007KT 10SM CLR 28/25 A2997 RMK AO2 SLP147 T02830250



Page loaded:  14:22 UTC  |   07:22 AM Pacific  |   08:22 AM Mountain  |   09:22 AM Central  |   10:22 AM Eastern

 

ADVISORIES

FORECASTS

FORECASTS

OBSERVATIONS

USER TOOLS

ABOUT US